»·PEaware :: N734RS KYKM-KBLI

N734RS :: KYKM-KBLI

FLIGHT INFORMATION

Flight Status: Arrived
Operator: Privately registered:
United States
More flights under this callsign
Pilot: Ted G. (11658)
Aircraft: CESSNA T210 TURBO CENTURION
(T210)
More flights by this aircraft type
Origin: KYKM Yakima Air Term/Mcallister
United States
Destination: KBLI Bellingham Intl
United States
More flights between these airports :: More routes between these airports
Route: YKM7 YKM V4 SEA V23 PAE MADEE MADEE4
File this flight plan on PilotEdge
Remarks:
Altitude:
(Current/Filed)
10,000ft
Speed:
(Current/Filed)
165kts
Departed: 19-Apr-20 06:24 PM
Arrived: 19-Apr-20 07:49 PM
Distance/Time
Traveled:
156nm/1:25
Distance/Time
To Go:
Arrived

Flight Plot

Page will automatically refresh every two minutes.


Map Options




Map Legend


Flown Route
Filed Route
Departure Airport
Arrival Airport
Navaid (VOR, NDB)
Fix

Horizontal Profiles

Position Reports

Time Latitude Longitude Heading Altitude Ground
Speed
19-Apr-20 18:05 46.571504 -120.547968 91 1103ft 0kts
19-Apr-20 18:06 46.571504 -120.547968 91 1103ft 0kts
19-Apr-20 18:07 46.571504 -120.547968 91 1103ft 0kts
19-Apr-20 18:08 46.571504 -120.547968 91 1103ft 0kts
19-Apr-20 18:09 46.571504 -120.547968 91 1103ft 0kts
19-Apr-20 18:10 46.571504 -120.547968 91 1103ft 0kts
19-Apr-20 18:11 46.571504 -120.547968 91 1103ft 0kts
19-Apr-20 18:12 46.571504 -120.547968 91 1103ft 0kts
19-Apr-20 18:13 46.571504 -120.547968 91 1103ft 0kts
19-Apr-20 18:14 46.571504 -120.547968 91 1103ft 0kts
19-Apr-20 18:15 46.571504 -120.547968 91 1103ft 0kts
19-Apr-20 18:16 46.571409 -120.547965 222 1103ft 1kts
19-Apr-20 18:17 46.571950 -120.552521 289 1103ft 20kts
19-Apr-20 18:18 46.573369 -120.558725 220 1103ft 0kts
19-Apr-20 18:19 46.573369 -120.558725 220 1103ft 0kts
19-Apr-20 18:20 46.573369 -120.558725 220 1103ft 0kts
19-Apr-20 18:21 46.573369 -120.558725 220 1103ft 0kts
19-Apr-20 18:22 46.573369 -120.558725 220 1103ft 0kts
19-Apr-20 18:23 46.572002 -120.557227 109 1103ft 47kts
19-Apr-20 18:24 46.563689 -120.519577 102 1910ft 121kts
19-Apr-20 18:25 46.565246 -120.466672 82 3044ft 140kts
19-Apr-20 18:26 46.555413 -120.416284 147 4141ft 147kts
19-Apr-20 18:27 46.536886 -120.373337 196 5403ft 136kts
19-Apr-20 18:28 46.549388 -120.414168 322 6500ft 144kts
19-Apr-20 18:29 46.575971 -120.457561 300 7608ft 145kts
19-Apr-20 18:30 46.597060 -120.503733 304 8681ft 131kts
19-Apr-20 18:31 46.616970 -120.544944 304 9745ft 113kts
19-Apr-20 18:32 46.637007 -120.586465 304 10028ft 147kts
19-Apr-20 18:33 46.662335 -120.638835 304 10020ft 164kts
19-Apr-20 18:34 46.688928 -120.693954 304 10018ft 167kts
19-Apr-20 18:35 46.715668 -120.749570 304 10018ft 168kts
19-Apr-20 18:36 46.742283 -120.805712 304 10019ft 168kts
19-Apr-20 18:37 46.768755 -120.861679 304 10020ft 168kts
19-Apr-20 18:38 46.795308 -120.917933 304 10022ft 167kts
19-Apr-20 18:39 46.821498 -120.973522 304 10023ft 165kts
19-Apr-20 18:40 46.847506 -121.028799 303 10025ft 165kts
19-Apr-20 18:41 46.873633 -121.084528 303 10027ft 166kts
19-Apr-20 18:42 46.899754 -121.140376 303 10027ft 166kts
19-Apr-20 18:43 46.925871 -121.196266 303 10027ft 166kts
19-Apr-20 18:44 46.951989 -121.252267 302 10049ft 165kts
19-Apr-20 18:46 46.977964 -121.308072 302 10077ft 165kts
19-Apr-20 18:47 47.003510 -121.363116 303 10103ft 161kts
19-Apr-20 18:48 47.026650 -121.412988 303 10108ft 161kts
19-Apr-20 18:49 47.057618 -121.446864 331 10007ft 165kts
19-Apr-20 18:50 47.101856 -121.480838 331 10005ft 162kts
19-Apr-20 18:51 47.141852 -121.511569 331 10003ft 162kts
19-Apr-20 18:52 47.181821 -121.542308 331 10000ft 162kts
19-Apr-20 18:53 47.221737 -121.573030 331 9999ft 162kts
19-Apr-20 18:54 47.261672 -121.603794 331 9999ft 162kts
19-Apr-20 18:55 47.301553 -121.634544 331 9999ft 162kts
19-Apr-20 18:56 47.340982 -121.664934 330 10000ft 162kts
19-Apr-20 18:57 47.380976 -121.695824 330 10000ft 162kts
19-Apr-20 18:58 47.420906 -121.726686 330 10000ft 162kts
19-Apr-20 18:59 47.459056 -121.760703 324 10000ft 161kts
19-Apr-20 19:00 47.495269 -121.797844 318 10000ft 161kts
19-Apr-20 19:01 47.528863 -121.840195 317 10000ft 161kts
19-Apr-20 19:02 47.562639 -121.882983 317 10000ft 161kts
19-Apr-20 19:03 47.596412 -121.925774 317 9999ft 161kts
19-Apr-20 19:03 47.624590 -121.961484 317 9999ft 161kts
19-Apr-20 19:05 47.664166 -122.011663 317 9999ft 161kts
19-Apr-20 19:06 47.698353 -122.054981 317 10001ft 161kts
19-Apr-20 19:06 47.726831 -122.090977 317 10004ft 161kts
19-Apr-20 19:07 47.760907 -122.133949 318 10008ft 161kts
19-Apr-20 19:09 47.806724 -122.171678 329 10013ft 162kts
19-Apr-20 19:09 47.839354 -122.199439 327 10017ft 162kts
19-Apr-20 19:10 47.877656 -122.235142 323 10018ft 162kts
19-Apr-20 19:11 47.915255 -122.272112 338 10009ft 164kts
19-Apr-20 19:12 47.960173 -122.285277 346 10018ft 164kts
19-Apr-20 19:13 48.005071 -122.299565 345 10018ft 164kts
19-Apr-20 19:14 48.049867 -122.313905 345 10002ft 165kts
19-Apr-20 19:15 48.094727 -122.328148 345 9999ft 164kts
19-Apr-20 19:16 48.139367 -122.342192 345 9999ft 163kts
19-Apr-20 19:17 48.183421 -122.355960 345 9999ft 163kts
19-Apr-20 19:18 48.227683 -122.369856 345 9999ft 164kts
19-Apr-20 19:19 48.269030 -122.382910 345 9999ft 164kts
19-Apr-20 19:20 48.304922 -122.394348 345 9999ft 165kts
19-Apr-20 19:21 48.338531 -122.405157 345 10000ft 165kts
19-Apr-20 19:22 48.372481 -122.416108 345 10008ft 165kts
19-Apr-20 19:23 48.407883 -122.427079 346 10041ft 164kts
19-Apr-20 19:24 48.445500 -122.434160 358 10042ft 166kts
19-Apr-20 19:25 48.486053 -122.441983 349 10043ft 165kts
19-Apr-20 19:26 48.526122 -122.450458 350 9875ft 165kts
19-Apr-20 19:27 48.582976 -122.462666 350 9032ft 158kts
19-Apr-20 19:28 48.636007 -122.473788 350 8375ft 167kts
19-Apr-20 19:29 48.699029 -122.487578 350 6809ft 177kts
19-Apr-20 19:30 48.746720 -122.498052 350 5597ft 168kts
19-Apr-20 19:31 48.792237 -122.508041 350 4392ft 164kts
19-Apr-20 19:32 48.837016 -122.517897 350 3186ft 162kts
19-Apr-20 19:33 48.874349 -122.525864 350 3022ft 119kts
19-Apr-20 19:34 48.903994 -122.527471 355 3037ft 105kts
19-Apr-20 19:35 48.943433 -122.529851 356 3031ft 158kts
19-Apr-20 19:36 48.980239 -122.533391 351 3036ft 123kts
19-Apr-20 19:37 49.011790 -122.547989 326 3026ft 118kts
19-Apr-20 19:38 49.041316 -122.565468 27 3015ft 124kts
19-Apr-20 19:39 49.035781 -122.524887 177 3014ft 117kts
19-Apr-20 19:40 49.004405 -122.535798 188 3025ft 116kts
19-Apr-20 19:41 48.971893 -122.538174 183 3027ft 117kts
19-Apr-20 19:42 48.939195 -122.538192 181 2834ft 118kts
19-Apr-20 19:43 48.907313 -122.538004 182 2256ft 114kts
19-Apr-20 19:44 48.875615 -122.537881 182 1646ft 114kts
19-Apr-20 19:45 48.843924 -122.537761 182 1027ft 113kts
19-Apr-20 19:46 48.820170 -122.537869 181 493ft 90kts
19-Apr-20 19:47 48.796768 -122.537517 182 173ft 58kts
19-Apr-20 19:48 48.792995 -122.536617 33 173ft 0kts
19-Apr-20 19:49 48.793694 -122.535790 39 173ft 9kts
19-Apr-20 19:50 48.793787 -122.532758 143 173ft 2kts
19-Apr-20 19:51 48.793661 -122.532661 149 173ft 0kts
19-Apr-20 19:52 48.793661 -122.532661 149 173ft 0kts
19-Apr-20 19:53 48.793661 -122.532661 149 173ft 0kts
19-Apr-20 19:54 48.793661 -122.532661 149 173ft 0kts

Navigation Log

Ident Type
Flight plan parsing failed, navigation log unavailable